createdAt,value
2023-04-20T00:00:55.342Z,3.80
2023-04-20T00:03:22.649Z,3.33
2023-04-20T00:05:49.712Z,3.50
2023-04-20T00:08:17.306Z,3.50
2023-04-20T00:10:45.590Z,3.72
2023-04-20T00:13:12.685Z,3.28
2023-04-20T00:15:39.648Z,4.10
2023-04-20T00:18:07.136Z,3.17
2023-04-20T00:20:34.063Z,3.97
2023-04-20T00:23:01.403Z,3.38
2023-04-20T00:25:28.341Z,3.58
2023-04-20T00:27:55.391Z,4.18
2023-04-20T00:30:22.545Z,3.97
2023-04-20T00:32:49.614Z,4.40
2023-04-20T00:35:16.613Z,4.22
2023-04-20T00:37:43.615Z,4.70
2023-04-20T00:40:10.929Z,4.18
2023-04-20T00:42:38.042Z,3.65
2023-04-20T00:45:06.353Z,4.32
2023-04-20T00:47:33.265Z,4.18
2023-04-20T00:50:00.289Z,4.20
2023-04-20T00:52:27.246Z,5.10
2023-04-20T00:54:54.296Z,4.38
2023-04-20T00:57:21.198Z,4.10
2023-04-20T00:59:48.174Z,3.80
2023-04-20T01:02:15.077Z,3.55
2023-04-20T01:04:41.980Z,4.20
2023-04-20T01:07:08.934Z,3.75
2023-04-20T01:09:38.770Z,3.72
2023-04-20T01:12:07.059Z,3.83
2023-04-20T01:14:34.001Z,4.45
2023-04-20T01:17:01.912Z,4.43
2023-04-20T01:19:28.874Z,4.38
2023-04-20T01:21:55.834Z,4.38
2023-04-20T01:24:22.796Z,4.50
2023-04-20T01:26:49.746Z,5.38
2023-04-20T01:29:16.961Z,4.60
2023-04-20T01:31:44.147Z,4.05
2023-04-20T01:34:11.129Z,4.05
2023-04-20T01:36:38.057Z,4.57
2023-04-20T01:39:04.987Z,3.67
2023-04-20T01:41:31.877Z,4.22
2023-04-20T01:43:58.866Z,4.32
2023-04-20T01:46:25.808Z,4.43
2023-04-20T01:48:52.749Z,3.70
2023-04-20T01:51:19.706Z,4.30
2023-04-20T01:53:46.734Z,3.75
2023-04-20T01:56:13.784Z,3.97
2023-04-20T01:58:40.722Z,3.70
2023-04-20T02:01:07.714Z,3.88
2023-04-20T02:03:34.867Z,3.70
2023-04-20T02:06:02.004Z,4.13
2023-04-20T02:08:28.971Z,3.83
2023-04-20T02:10:55.876Z,3.83
2023-04-20T02:13:22.763Z,4.32
2023-04-20T02:15:49.730Z,3.58
2023-04-20T02:18:16.693Z,3.55
2023-04-20T02:20:44.518Z,4.10
2023-04-20T02:23:11.749Z,3.83
2023-04-20T02:25:38.710Z,4.40
2023-04-20T02:28:05.737Z,3.85
2023-04-20T02:30:32.685Z,3.60
2023-04-20T02:32:59.896Z,4.22
2023-04-20T02:35:26.855Z,4.13
2023-04-20T02:37:53.813Z,4.43
2023-04-20T02:40:20.903Z,4.07
2023-04-20T02:42:47.841Z,4.47
2023-04-20T02:45:14.926Z,4.38
2023-04-20T02:47:41.982Z,3.72
2023-04-20T02:50:09.554Z,4.53
2023-04-20T02:52:36.509Z,4.63
2023-04-20T02:55:03.732Z,4.10
2023-04-20T02:57:30.706Z,3.78
2023-04-20T02:59:57.650Z,4.00
2023-04-20T03:02:24.741Z,4.50
2023-04-20T03:04:51.809Z,3.70
2023-04-20T03:07:18.817Z,4.32
2023-04-20T03:09:45.797Z,3.58
2023-04-20T03:12:12.804Z,3.95
2023-04-20T03:14:39.781Z,4.00
2023-04-20T03:17:06.711Z,3.85
2023-04-20T03:19:33.584Z,3.70
2023-04-20T03:22:00.500Z,3.65
2023-04-20T03:24:27.478Z,3.38
2023-04-20T03:26:54.491Z,3.95
2023-04-20T03:29:21.448Z,3.92
2023-04-20T03:31:48.493Z,4.00
2023-04-20T03:34:15.446Z,3.42
2023-04-20T03:36:42.314Z,3.90
2023-04-20T03:39:09.198Z,3.72
2023-04-20T03:41:36.097Z,3.60
2023-04-20T03:44:03.108Z,3.38
2023-04-20T03:46:30.147Z,3.05
2023-04-20T03:48:57.146Z,3.67
2023-04-20T03:51:24.103Z,3.17
2023-04-20T03:53:51.046Z,3.50
2023-04-20T03:56:17.954Z,3.42
2023-04-20T03:58:44.902Z,3.60
2023-04-20T04:01:11.870Z,3.15
2023-04-20T04:03:38.966Z,4.18
2023-04-20T04:06:07.466Z,3.90
2023-04-20T04:08:34.357Z,4.85
2023-04-20T04:11:01.307Z,4.43
2023-04-20T04:13:28.263Z,4.47
2023-04-20T04:15:55.243Z,4.43
2023-04-20T04:18:22.539Z,4.32
2023-04-20T04:20:49.519Z,3.92
2023-04-20T04:23:16.486Z,4.15
2023-04-20T04:25:43.405Z,4.20
2023-04-20T04:28:10.482Z,4.70
2023-04-20T04:30:37.415Z,4.60
2023-04-20T04:33:04.453Z,4.80
2023-04-20T04:35:31.790Z,4.60
2023-04-20T04:37:58.685Z,4.20
2023-04-20T04:40:25.649Z,3.92
2023-04-20T04:42:52.600Z,3.60
2023-04-20T04:45:19.656Z,3.83
2023-04-20T04:47:46.770Z,3.60
2023-04-20T04:50:13.730Z,3.65
2023-04-20T04:52:40.634Z,3.90
2023-04-20T04:55:08.243Z,4.55
2023-04-20T04:57:35.620Z,4.50
2023-04-20T05:00:02.680Z,4.18
2023-04-20T05:02:29.866Z,4.10
2023-04-20T05:04:57.000Z,3.63
2023-04-20T05:07:24.009Z,3.95
2023-04-20T05:09:50.965Z,4.07
2023-04-20T05:12:17.973Z,4.00
2023-04-20T05:14:44.900Z,3.92
2023-04-20T05:17:11.879Z,3.63
2023-04-20T05:19:38.855Z,4.15
2023-04-20T05:22:05.903Z,4.45
2023-04-20T05:24:32.906Z,4.00
2023-04-20T05:26:59.805Z,4.60
2023-04-20T05:29:26.793Z,6.38
2023-04-20T05:31:53.840Z,6.85
2023-04-20T05:34:20.762Z,5.13
2023-04-20T05:36:47.702Z,5.13
2023-04-20T05:39:14.714Z,5.38
2023-04-20T05:41:41.759Z,4.70
2023-04-20T05:44:08.628Z,5.07
2023-04-20T05:46:35.554Z,5.00
2023-04-20T05:49:02.502Z,4.55
2023-04-20T05:51:50.852Z,5.65
2023-04-20T05:54:17.781Z,5.50
2023-04-20T05:56:44.765Z,5.03
2023-04-20T05:59:12.610Z,5.32
2023-04-20T06:01:49.776Z,5.25
2023-04-20T06:04:32.989Z,5.30
2023-04-20T06:07:00.224Z,4.60
2023-04-20T06:09:27.138Z,4.85
2023-04-20T06:11:54.036Z,5.07
2023-04-20T06:14:20.935Z,6.05
2023-04-20T06:16:47.929Z,6.15
2023-04-20T06:19:15.007Z,6.07
2023-04-20T06:21:42.133Z,5.78
2023-04-20T06:24:09.137Z,6.05
2023-04-20T06:26:36.207Z,5.15
2023-04-20T06:29:03.208Z,5.70
2023-04-20T06:31:30.127Z,5.60
2023-04-20T06:33:57.063Z,5.80
2023-04-20T06:36:23.961Z,4.70
2023-04-20T06:38:50.982Z,6.28
2023-04-20T06:41:18.004Z,5.35
2023-04-20T06:43:44.945Z,6.15
2023-04-20T06:46:12.003Z,5.55
2023-04-20T06:48:38.980Z,5.40
2023-04-20T06:51:06.091Z,4.82
2023-04-20T06:53:33.127Z,5.45
2023-04-20T06:56:00.164Z,5.40
2023-04-20T06:58:27.104Z,4.75
2023-04-20T07:00:54.041Z,5.45
2023-04-20T07:03:21.259Z,4.80
2023-04-20T07:05:48.277Z,6.10
2023-04-20T07:08:15.258Z,4.63
2023-04-20T07:10:42.158Z,5.85
2023-04-20T07:13:09.060Z,6.15
2023-04-20T07:15:35.969Z,5.18
2023-04-20T07:18:03.033Z,5.80
2023-04-20T07:20:31.008Z,7.05
2023-04-20T07:22:57.875Z,7.82
2023-04-20T07:25:24.810Z,7.18
2023-04-20T07:27:51.823Z,5.82
2023-04-20T07:30:18.889Z,7.78
2023-04-20T07:32:45.942Z,7.53
2023-04-20T07:35:12.937Z,8.70
2023-04-20T07:37:40.598Z,8.32
2023-04-20T07:40:08.757Z,8.05
2023-04-20T07:42:35.997Z,9.13
2023-04-20T07:45:04.840Z,11.65
2023-04-20T07:47:33.077Z,9.95
2023-04-20T07:50:00.155Z,8.52
2023-04-20T07:52:27.167Z,9.52
2023-04-20T07:54:55.148Z,9.70
2023-04-20T07:57:22.132Z,10.45
2023-04-20T07:59:49.084Z,10.73
2023-04-20T08:02:16.146Z,11.13
2023-04-20T08:04:43.515Z,11.90
2023-04-20T08:07:13.630Z,11.10
2023-04-20T08:09:40.634Z,10.68
2023-04-20T08:12:07.844Z,10.35
2023-04-20T08:14:34.861Z,9.57
2023-04-20T08:17:01.871Z,11.23
2023-04-20T08:19:28.774Z,10.15
2023-04-20T08:21:56.048Z,10.23
2023-04-20T08:24:23.010Z,11.15
2023-04-20T08:26:50.133Z,11.55
2023-04-20T08:29:17.672Z,12.07
2023-04-20T08:31:44.687Z,11.93
2023-04-20T08:34:12.361Z,11.38
2023-04-20T08:36:39.425Z,12.13
2023-04-20T08:39:18.625Z,10.55
2023-04-20T08:41:45.598Z,11.70
2023-04-20T08:44:12.530Z,11.00
2023-04-20T08:46:40.698Z,10.23
2023-04-20T08:49:12.000Z,10.02
2023-04-20T08:51:40.238Z,10.15
2023-04-20T08:54:07.498Z,11.20
2023-04-20T08:56:35.791Z,11.30
2023-04-20T08:59:03.264Z,11.70
2023-04-20T09:01:35.615Z,12.13
2023-04-20T09:04:14.801Z,12.20
2023-04-20T09:06:48.056Z,11.50
2023-04-20T09:09:14.981Z,12.25
2023-04-20T09:11:41.902Z,11.30
2023-04-20T09:14:13.755Z,12.77
2023-04-20T09:16:57.075Z,11.00
2023-04-20T09:19:25.300Z,10.57
2023-04-20T09:21:54.380Z,9.80
2023-04-20T09:24:22.581Z,10.13
2023-04-20T09:26:49.574Z,10.85
2023-04-20T09:29:20.949Z,12.57
2023-04-20T09:31:48.679Z,12.38
2023-04-20T09:34:15.939Z,10.73
2023-04-20T09:36:44.732Z,12.93
2023-04-20T09:39:19.622Z,11.68
2023-04-20T09:41:46.913Z,12.07
2023-04-20T09:44:15.714Z,12.65
2023-04-20T09:46:43.224Z,12.70
2023-04-20T09:49:11.899Z,11.80
2023-04-20T09:51:41.296Z,9.65
2023-04-20T09:54:08.639Z,11.80
2023-04-20T09:56:35.827Z,11.35
2023-04-20T09:59:02.887Z,12.18
2023-04-20T10:01:31.390Z,13.35
2023-04-20T10:03:58.889Z,14.75
2023-04-20T10:06:31.160Z,14.95
2023-04-20T10:08:58.582Z,14.55
2023-04-20T10:11:51.550Z,15.00
2023-04-20T10:14:25.119Z,14.57
2023-04-20T10:17:06.553Z,14.02
2023-04-20T10:19:44.260Z,15.05
2023-04-20T10:22:13.576Z,16.58
2023-04-20T10:24:40.612Z,16.08
2023-04-20T10:27:18.855Z,17.17
2023-04-20T10:29:45.838Z,15.20
2023-04-20T10:32:26.636Z,16.08
2023-04-20T10:35:09.495Z,15.30
2023-04-20T10:37:36.513Z,15.70
2023-04-20T10:40:04.752Z,14.88
2023-04-20T10:42:43.280Z,14.43
2023-04-20T10:45:10.428Z,15.20
2023-04-20T10:47:37.523Z,15.93
2023-04-20T10:50:13.102Z,14.68
2023-04-20T10:52:42.016Z,17.35
2023-04-20T10:55:25.826Z,15.75
2023-04-20T10:57:53.031Z,17.10
2023-04-20T11:00:21.599Z,16.38
2023-04-20T11:02:55.323Z,16.90
2023-04-20T11:05:24.625Z,17.70
2023-04-20T11:07:55.575Z,17.48
2023-04-20T11:10:25.334Z,16.13
2023-04-20T11:12:52.276Z,16.45
2023-04-20T11:15:19.238Z,17.40
2023-04-20T11:17:46.294Z,16.88
2023-04-20T11:20:14.754Z,16.83
2023-04-20T11:22:42.552Z,16.98
2023-04-20T11:25:11.170Z,17.55
2023-04-20T11:27:38.767Z,17.70
2023-04-20T11:30:06.669Z,17.67
2023-04-20T11:32:34.099Z,17.33
2023-04-20T11:35:07.205Z,17.02
2023-04-20T11:37:48.090Z,17.85
2023-04-20T11:40:15.257Z,17.02
2023-04-20T11:42:42.319Z,16.58
2023-04-20T11:45:09.934Z,17.08
2023-04-20T11:47:37.144Z,17.25
2023-04-20T11:50:05.289Z,16.42
2023-04-20T11:52:32.185Z,16.33
2023-04-20T11:54:59.112Z,16.50
2023-04-20T11:57:26.616Z,16.80
2023-04-20T11:59:53.591Z,17.80
2023-04-20T12:02:20.600Z,16.33
2023-04-20T12:04:47.866Z,17.30
2023-04-20T12:07:14.975Z,18.33
2023-04-20T12:09:41.942Z,18.45
2023-04-20T12:12:08.878Z,17.27
2023-04-20T12:14:35.853Z,17.83
2023-04-20T12:17:03.534Z,15.52
2023-04-20T12:19:31.089Z,17.25
2023-04-20T12:21:58.147Z,16.75
2023-04-20T12:24:25.074Z,17.30
2023-04-20T12:26:52.030Z,16.70
2023-04-20T12:29:19.345Z,14.73
2023-04-20T12:31:46.568Z,17.50
2023-04-20T12:34:13.524Z,15.57
2023-04-20T12:36:40.462Z,15.68
2023-04-20T12:39:07.444Z,14.52
2023-04-20T12:41:34.424Z,14.43
2023-04-20T12:44:04.284Z,13.65
2023-04-20T12:46:33.035Z,14.32
2023-04-20T12:48:59.978Z,13.43
2023-04-20T12:51:26.883Z,13.95
2023-04-20T12:53:53.814Z,14.43
2023-04-20T12:56:20.718Z,15.32
2023-04-20T12:58:49.015Z,14.30
2023-04-20T13:01:17.458Z,16.38
2023-04-20T13:03:44.521Z,14.27
2023-04-20T13:06:14.152Z,16.45
2023-04-20T13:08:41.252Z,15.88
2023-04-20T13:11:08.177Z,14.95
2023-04-20T13:13:35.135Z,14.70
2023-04-20T13:16:02.122Z,13.35
2023-04-20T13:18:29.098Z,14.88
2023-04-20T13:20:56.006Z,16.52
2023-04-20T13:23:22.897Z,14.23
2023-04-20T13:25:49.776Z,14.70
2023-04-20T13:28:16.657Z,15.57
2023-04-20T13:30:43.658Z,17.17
2023-04-20T13:33:10.813Z,14.18
2023-04-20T13:35:37.793Z,15.32
2023-04-20T13:38:04.840Z,13.73
2023-04-20T13:40:31.805Z,13.32
2023-04-20T13:42:58.730Z,14.30
2023-04-20T13:45:25.757Z,13.05
2023-04-20T13:47:52.797Z,12.77
2023-04-20T13:50:19.770Z,13.80
2023-04-20T13:52:46.732Z,12.18
2023-04-20T13:55:13.661Z,13.15
2023-04-20T13:57:40.564Z,11.60
2023-04-20T14:00:08.755Z,12.85
2023-04-20T14:02:35.851Z,13.05
2023-04-20T14:05:02.957Z,13.70
2023-04-20T14:07:30.749Z,14.45
2023-04-20T14:09:57.875Z,13.20
2023-04-20T14:12:24.809Z,14.13
2023-04-20T14:14:51.749Z,13.23
2023-04-20T14:17:18.814Z,11.75
2023-04-20T14:19:45.841Z,11.05
2023-04-20T14:22:12.818Z,11.95
2023-04-20T14:24:39.809Z,10.90
2023-04-20T14:27:06.654Z,11.40
2023-04-20T14:29:33.628Z,12.13
2023-04-20T14:32:00.588Z,11.45
2023-04-20T14:34:27.525Z,11.20
2023-04-20T14:36:54.403Z,11.05
2023-04-20T14:39:21.307Z,10.65
2023-04-20T14:41:48.170Z,9.40
2023-04-20T14:44:15.059Z,11.23
2023-04-20T14:46:42.703Z,11.45
2023-04-20T14:49:09.891Z,9.32
2023-04-20T14:51:36.839Z,9.45
2023-04-20T14:54:03.844Z,8.65
2023-04-20T14:56:30.892Z,8.82
2023-04-20T14:59:00.874Z,7.90
2023-04-20T15:01:28.129Z,7.82
2023-04-20T15:03:55.489Z,7.35
2023-04-20T15:06:22.857Z,7.47
2023-04-20T15:08:49.804Z,6.72
2023-04-20T15:11:16.773Z,7.60
2023-04-20T15:13:43.868Z,6.90
2023-04-20T15:16:10.771Z,6.75
2023-04-20T15:18:37.749Z,7.22
2023-04-20T15:21:04.943Z,6.75
2023-04-20T15:23:31.913Z,6.22
2023-04-20T15:25:58.947Z,6.40
2023-04-20T15:28:25.938Z,6.30
2023-04-20T15:30:52.892Z,5.93
2023-04-20T15:33:19.944Z,7.50
2023-04-20T15:35:46.966Z,6.43
2023-04-20T15:38:13.950Z,5.88
2023-04-20T15:40:40.959Z,6.07
2023-04-20T15:43:07.884Z,5.38
2023-04-20T15:45:34.878Z,6.68
2023-04-20T15:48:01.889Z,6.75
2023-04-20T15:50:28.807Z,6.72
2023-04-20T15:52:55.671Z,6.05
2023-04-20T15:55:22.755Z,6.65
2023-04-20T15:57:49.652Z,6.20
2023-04-20T16:00:17.092Z,6.03
2023-04-20T16:02:44.098Z,6.38
2023-04-20T16:05:11.230Z,7.20
2023-04-20T16:07:38.172Z,8.57
2023-04-20T16:10:06.178Z,7.63
2023-04-20T16:12:33.158Z,7.82
2023-04-20T16:15:03.919Z,8.10
2023-04-20T16:17:30.897Z,6.45
2023-04-20T16:19:57.919Z,5.20
2023-04-20T16:22:24.854Z,4.70
2023-04-20T16:24:51.861Z,4.72
2023-04-20T16:27:18.879Z,4.25
2023-04-20T16:29:45.857Z,4.50
2023-04-20T16:32:13.157Z,5.32
2023-04-20T16:34:40.042Z,5.38
2023-04-20T16:37:07.014Z,43.10
2023-04-20T16:39:34.011Z,19.23
2023-04-20T16:42:01.189Z,9.45
2023-04-20T16:44:28.187Z,5.65
2023-04-20T16:46:55.184Z,5.40
2023-04-20T16:49:22.189Z,4.80
2023-04-20T16:51:49.125Z,4.97
2023-04-20T16:54:16.302Z,8.95
2023-04-20T16:56:43.468Z,9.25
2023-04-20T16:59:10.383Z,14.02
2023-04-20T17:01:37.481Z,16.85
2023-04-20T17:04:04.610Z,16.83
2023-04-20T17:06:31.798Z,11.98
2023-04-20T17:08:58.733Z,6.93
2023-04-20T17:11:25.716Z,9.52
2023-04-20T17:13:54.837Z,11.02
2023-04-20T17:16:21.866Z,6.40
2023-04-20T17:18:48.891Z,4.80
2023-04-20T17:21:15.779Z,4.85
2023-04-20T17:23:42.738Z,6.20
2023-04-20T17:26:09.677Z,5.85
2023-04-20T17:28:36.621Z,5.50
2023-04-20T17:31:03.557Z,5.53
2023-04-20T17:33:30.451Z,5.50
2023-04-20T17:35:57.521Z,5.60
2023-04-20T17:38:24.555Z,5.25
2023-04-20T17:40:51.520Z,4.93
2023-04-20T17:43:18.467Z,4.35
2023-04-20T17:45:45.381Z,5.28
2023-04-20T17:48:12.339Z,4.60
2023-04-20T17:50:39.335Z,4.22
2023-04-20T17:53:06.315Z,5.07
2023-04-20T17:55:37.044Z,4.15
2023-04-20T17:58:03.972Z,3.25
2023-04-20T18:00:30.907Z,3.50
2023-04-20T18:02:58.846Z,2.67
2023-04-20T18:05:26.191Z,3.13
2023-04-20T18:07:53.127Z,2.58
2023-04-20T18:10:20.162Z,2.05
2023-04-20T18:12:47.330Z,3.17
2023-04-20T18:15:14.572Z,2.80
2023-04-20T18:17:41.605Z,2.30
2023-04-20T18:20:09.012Z,2.17
2023-04-20T18:22:36.683Z,2.45
2023-04-20T18:25:04.324Z,2.20
2023-04-20T18:27:31.336Z,2.05
2023-04-20T18:29:58.300Z,2.67
2023-04-20T18:32:26.318Z,2.85
2023-04-20T18:34:53.473Z,1.60
2023-04-20T18:37:20.374Z,1.50
2023-04-20T18:39:47.371Z,1.50
2023-04-20T18:42:14.271Z,1.63
2023-04-20T18:44:41.247Z,1.98
2023-04-20T18:47:08.309Z,1.30
2023-04-20T18:49:35.344Z,1.77
2023-04-20T18:52:03.305Z,2.30
2023-04-20T18:54:30.320Z,2.72
2023-04-20T18:56:57.268Z,2.20
2023-04-20T18:59:24.231Z,1.67
2023-04-20T19:01:51.213Z,2.17
2023-04-20T19:04:18.505Z,1.77
2023-04-20T19:06:45.743Z,2.72
2023-04-20T19:09:13.121Z,2.78
2023-04-20T19:11:40.086Z,2.60
2023-04-20T19:14:07.039Z,2.80
2023-04-20T19:16:34.178Z,2.83
2023-04-20T19:19:01.336Z,2.08
2023-04-20T19:21:28.231Z,2.50
2023-04-20T19:23:55.934Z,2.13
2023-04-20T19:26:22.815Z,2.47
2023-04-20T19:28:49.698Z,2.70
2023-04-20T19:31:16.680Z,2.40
2023-04-20T19:33:43.560Z,3.13
2023-04-20T19:36:10.422Z,2.60
2023-04-20T19:38:37.314Z,2.80
2023-04-20T19:41:05.160Z,2.17
2023-04-20T19:43:32.087Z,2.70
2023-04-20T19:45:59.360Z,2.72
2023-04-20T19:48:26.334Z,2.30
2023-04-20T19:50:53.352Z,1.77
2023-04-20T19:53:20.209Z,2.83
2023-04-20T19:55:47.115Z,3.00
2023-04-20T19:58:14.007Z,2.38
2023-04-20T20:00:40.919Z,2.13
2023-04-20T20:03:08.259Z,1.98
2023-04-20T20:05:35.397Z,2.65
2023-04-20T20:08:02.361Z,2.17
2023-04-20T20:10:29.257Z,2.40
2023-04-20T20:12:56.221Z,3.17
2023-04-20T20:15:23.325Z,2.92
2023-04-20T20:17:50.360Z,3.03
2023-04-20T20:20:17.395Z,2.72
2023-04-20T20:22:44.242Z,2.58
2023-04-20T20:25:11.146Z,3.08
2023-04-20T20:27:38.034Z,3.08
2023-04-20T20:30:05.782Z,3.42
2023-04-20T20:32:32.667Z,3.95
2023-04-20T20:34:59.594Z,3.25
2023-04-20T20:37:26.520Z,3.50
2023-04-20T20:39:53.457Z,2.90
2023-04-20T20:42:20.350Z,2.63
2023-04-20T20:44:47.414Z,3.13
2023-04-20T20:47:14.369Z,3.83
2023-04-20T20:49:41.272Z,3.15
2023-04-20T20:52:08.173Z,2.80
2023-04-20T20:54:35.080Z,3.90
2023-04-20T20:57:01.936Z,2.80
2023-04-20T20:59:28.840Z,2.85
2023-04-20T21:01:55.789Z,3.40
2023-04-20T21:04:22.838Z,2.53
2023-04-20T21:06:49.850Z,2.38
2023-04-20T21:09:17.052Z,1.80
2023-04-20T21:11:44.029Z,1.77
2023-04-20T21:14:10.933Z,1.70
2023-04-20T21:16:37.847Z,1.90
2023-04-20T21:19:04.943Z,1.95
2023-04-20T21:21:31.865Z,2.08
2023-04-20T21:23:59.176Z,2.50
2023-04-20T21:26:26.020Z,2.33
2023-04-20T21:28:52.871Z,1.60
2023-04-20T21:31:19.752Z,1.83
2023-04-20T21:33:46.589Z,2.03
2023-04-20T21:36:13.479Z,2.35
2023-04-20T21:38:40.333Z,2.38
2023-04-20T21:41:07.221Z,2.40
2023-04-20T21:43:34.120Z,2.70
2023-04-20T21:46:00.972Z,3.10
2023-04-20T21:48:27.869Z,2.50
2023-04-20T21:50:54.756Z,3.30
2023-04-20T21:53:21.617Z,3.05
2023-04-20T21:55:48.619Z,2.72
2023-04-20T21:58:15.531Z,4.68
2023-04-20T22:00:42.449Z,4.18
2023-04-20T22:03:09.431Z,2.72
2023-04-20T22:05:36.363Z,4.15
2023-04-20T22:08:03.308Z,5.03
2023-04-20T22:10:30.404Z,3.10
2023-04-20T22:12:57.268Z,2.60
2023-04-20T22:15:24.287Z,3.72
2023-04-20T22:17:51.329Z,2.80
2023-04-20T22:20:18.341Z,2.47
2023-04-20T22:22:45.562Z,2.55
2023-04-20T22:25:12.448Z,3.70
2023-04-20T22:27:39.345Z,1.80
2023-04-20T22:30:07.168Z,1.75
2023-04-20T22:32:34.051Z,2.70
2023-04-20T22:35:01.073Z,1.83
2023-04-20T22:37:27.971Z,4.10
2023-04-20T22:39:54.832Z,4.60
2023-04-20T22:42:21.733Z,3.72
2023-04-20T22:44:48.628Z,3.17
2023-04-20T22:47:15.551Z,3.65
2023-04-20T22:49:42.422Z,4.18
2023-04-20T22:52:09.415Z,2.80
2023-04-20T22:54:36.339Z,1.83
2023-04-20T22:57:03.662Z,1.70
2023-04-20T22:59:30.560Z,2.00
2023-04-20T23:01:57.554Z,2.22
2023-04-20T23:04:24.588Z,1.75
2023-04-20T23:06:51.497Z,1.63
2023-04-20T23:09:18.534Z,1.30
2023-04-20T23:11:45.525Z,2.60
2023-04-20T23:14:12.431Z,1.85
2023-04-20T23:16:39.422Z,1.45
2023-04-20T23:19:06.428Z,1.65
2023-04-20T23:21:33.381Z,1.40
2023-04-20T23:24:00.275Z,1.60
2023-04-20T23:26:27.242Z,1.85
2023-04-20T23:28:54.309Z,1.80
2023-04-20T23:31:21.454Z,2.40
2023-04-20T23:33:48.417Z,2.03
2023-04-20T23:36:15.536Z,2.45
2023-04-20T23:38:42.747Z,2.17
2023-04-20T23:41:10.911Z,2.30
2023-04-20T23:43:38.106Z,2.67
2023-04-20T23:46:06.089Z,1.67
2023-04-20T23:48:33.733Z,2.35
2023-04-20T23:51:01.356Z,1.85
2023-04-20T23:53:28.364Z,2.05
2023-04-20T23:55:55.409Z,2.05
2023-04-20T23:58:26.543Z,1.75
